sensor_id;sensor_type;location;lat;lon;timestamp;P1;durP1;ratioP1;P2;durP2;ratioP2
13868;SDS011;7004;48.206;16.402;2022-08-18T00:01:51;15.67;;;8.50;;
13868;SDS011;7004;48.206;16.402;2022-08-18T00:04:46;15.30;;;8.40;;
13868;SDS011;7004;48.206;16.402;2022-08-18T00:07:15;15.43;;;9.20;;
13868;SDS011;7004;48.206;16.402;2022-08-18T00:09:51;11.87;;;8.37;;
13868;SDS011;7004;48.206;16.402;2022-08-18T00:14:44;11.63;;;8.17;;
13868;SDS011;7004;48.206;16.402;2022-08-18T00:17:11;15.90;;;8.17;;
13868;SDS011;7004;48.206;16.402;2022-08-18T00:19:39;20.37;;;8.73;;
13868;SDS011;7004;48.206;16.402;2022-08-18T00:22:05;12.97;;;8.73;;
13868;SDS011;7004;48.206;16.402;2022-08-18T00:24:34;13.77;;;8.00;;
13868;SDS011;7004;48.206;16.402;2022-08-18T00:27:01;16.17;;;8.30;;
13868;SDS011;7004;48.206;16.402;2022-08-18T00:29:28;13.37;;;8.37;;
13868;SDS011;7004;48.206;16.402;2022-08-18T00:31:56;17.03;;;7.87;;
13868;SDS011;7004;48.206;16.402;2022-08-18T00:34:23;14.07;;;8.20;;
13868;SDS011;7004;48.206;16.402;2022-08-18T00:36:49;14.47;;;8.17;;
13868;SDS011;7004;48.206;16.402;2022-08-18T00:39:15;17.97;;;8.20;;
13868;SDS011;7004;48.206;16.402;2022-08-18T00:41:42;15.17;;;7.83;;
13868;SDS011;7004;48.206;16.402;2022-08-18T00:44:08;11.93;;;7.83;;
13868;SDS011;7004;48.206;16.402;2022-08-18T00:46:35;11.57;;;8.17;;
13868;SDS011;7004;48.206;16.402;2022-08-18T00:49:02;13.53;;;8.00;;
13868;SDS011;7004;48.206;16.402;2022-08-18T00:54:26;15.07;;;8.03;;
13868;SDS011;7004;48.206;16.402;2022-08-18T00:56:56;11.97;;;7.83;;
13868;SDS011;7004;48.206;16.402;2022-08-18T00:59:34;11.10;;;7.83;;
13868;SDS011;7004;48.206;16.402;2022-08-18T01:02:32;13.53;;;8.17;;
13868;SDS011;7004;48.206;16.402;2022-08-18T01:05:09;11.80;;;7.77;;
13868;SDS011;7004;48.206;16.402;2022-08-18T01:07:44;15.00;;;8.33;;
13868;SDS011;7004;48.206;16.402;2022-08-18T01:10:17;15.03;;;8.07;;
13868;SDS011;7004;48.206;16.402;2022-08-18T01:12:48;11.77;;;8.13;;
13868;SDS011;7004;48.206;16.402;2022-08-18T01:15:18;15.17;;;7.50;;
13868;SDS011;7004;48.206;16.402;2022-08-18T01:17:47;13.03;;;8.10;;
13868;SDS011;7004;48.206;16.402;2022-08-18T01:20:34;13.33;;;8.67;;
13868;SDS011;7004;48.206;16.402;2022-08-18T01:23:26;14.60;;;8.13;;
13868;SDS011;7004;48.206;16.402;2022-08-18T01:25:54;15.33;;;8.03;;
13868;SDS011;7004;48.206;16.402;2022-08-18T01:28:32;11.87;;;8.37;;
13868;SDS011;7004;48.206;16.402;2022-08-18T01:31:03;14.33;;;7.80;;
13868;SDS011;7004;48.206;16.402;2022-08-18T01:33:32;10.63;;;7.77;;
13868;SDS011;7004;48.206;16.402;2022-08-18T01:36:18;12.80;;;8.17;;
13868;SDS011;7004;48.206;16.402;2022-08-18T01:38:48;10.23;;;7.80;;
13868;SDS011;7004;48.206;16.402;2022-08-18T01:41:18;11.53;;;8.33;;
13868;SDS011;7004;48.206;16.402;2022-08-18T01:43:49;20.87;;;8.50;;
13868;SDS011;7004;48.206;16.402;2022-08-18T01:46:20;11.90;;;7.77;;
13868;SDS011;7004;48.206;16.402;2022-08-18T01:48:47;13.37;;;7.70;;
13868;SDS011;7004;48.206;16.402;2022-08-18T01:51:14;13.90;;;7.67;;
13868;SDS011;7004;48.206;16.402;2022-08-18T01:53:43;11.47;;;7.73;;
13868;SDS011;7004;48.206;16.402;2022-08-18T01:56:11;11.40;;;7.47;;
13868;SDS011;7004;48.206;16.402;2022-08-18T01:58:39;12.00;;;8.00;;
13868;SDS011;7004;48.206;16.402;2022-08-18T02:01:05;11.67;;;7.50;;
13868;SDS011;7004;48.206;16.402;2022-08-18T02:03:35;14.60;;;8.23;;
13868;SDS011;7004;48.206;16.402;2022-08-18T02:06:07;15.50;;;7.83;;
13868;SDS011;7004;48.206;16.402;2022-08-18T02:08:36;11.07;;;7.40;;
13868;SDS011;7004;48.206;16.402;2022-08-18T02:11:04;8.60;;;7.63;;
13868;SDS011;7004;48.206;16.402;2022-08-18T02:13:32;11.37;;;7.73;;
13868;SDS011;7004;48.206;16.402;2022-08-18T02:15:59;13.03;;;7.77;;
13868;SDS011;7004;48.206;16.402;2022-08-18T02:18:28;9.13;;;8.10;;
13868;SDS011;7004;48.206;16.402;2022-08-18T02:20:58;13.77;;;7.10;;
13868;SDS011;7004;48.206;16.402;2022-08-18T02:23:54;10.87;;;8.10;;
13868;SDS011;7004;48.206;16.402;2022-08-18T02:26:21;13.43;;;7.80;;
13868;SDS011;7004;48.206;16.402;2022-08-18T02:28:48;14.43;;;8.13;;
13868;SDS011;7004;48.206;16.402;2022-08-18T02:31:16;8.40;;;7.50;;
13868;SDS011;7004;48.206;16.402;2022-08-18T02:33:46;13.70;;;8.30;;
13868;SDS011;7004;48.206;16.402;2022-08-18T02:36:13;10.00;;;7.50;;
13868;SDS011;7004;48.206;16.402;2022-08-18T02:38:40;12.73;;;8.00;;
13868;SDS011;7004;48.206;16.402;2022-08-18T02:41:08;13.57;;;7.40;;
13868;SDS011;7004;48.206;16.402;2022-08-18T02:43:36;13.90;;;7.50;;
13868;SDS011;7004;48.206;16.402;2022-08-18T02:46:04;15.20;;;7.60;;
13868;SDS011;7004;48.206;16.402;2022-08-18T02:48:32;10.77;;;7.60;;
13868;SDS011;7004;48.206;16.402;2022-08-18T02:51:12;11.87;;;7.90;;
13868;SDS011;7004;48.206;16.402;2022-08-18T02:53:41;11.77;;;7.63;;
13868;SDS011;7004;48.206;16.402;2022-08-18T02:56:15;12.87;;;7.70;;
13868;SDS011;7004;48.206;16.402;2022-08-18T02:58:57;15.50;;;8.03;;
13868;SDS011;7004;48.206;16.402;2022-08-18T03:01:33;10.10;;;8.23;;
13868;SDS011;7004;48.206;16.402;2022-08-18T03:04:03;12.80;;;8.63;;
13868;SDS011;7004;48.206;16.402;2022-08-18T03:06:33;11.47;;;7.83;;
13868;SDS011;7004;48.206;16.402;2022-08-18T03:09:02;12.97;;;8.00;;
13868;SDS011;7004;48.206;16.402;2022-08-18T03:11:34;10.53;;;8.40;;
13868;SDS011;7004;48.206;16.402;2022-08-18T03:14:02;13.53;;;7.93;;
13868;SDS011;7004;48.206;16.402;2022-08-18T03:16:30;10.60;;;8.10;;
13868;SDS011;7004;48.206;16.402;2022-08-18T03:18:57;15.37;;;8.27;;
13868;SDS011;7004;48.206;16.402;2022-08-18T03:21:29;12.07;;;8.13;;
13868;SDS011;7004;48.206;16.402;2022-08-18T03:24:00;11.53;;;7.80;;
13868;SDS011;7004;48.206;16.402;2022-08-18T03:26:28;11.60;;;7.67;;
13868;SDS011;7004;48.206;16.402;2022-08-18T03:28:57;10.50;;;7.57;;
13868;SDS011;7004;48.206;16.402;2022-08-18T03:31:24;9.70;;;7.97;;
13868;SDS011;7004;48.206;16.402;2022-08-18T03:33:55;10.83;;;7.63;;
13868;SDS011;7004;48.206;16.402;2022-08-18T03:36:26;8.73;;;7.83;;
13868;SDS011;7004;48.206;16.402;2022-08-18T03:38:56;9.20;;;7.50;;
13868;SDS011;7004;48.206;16.402;2022-08-18T03:41:23;12.30;;;7.93;;
13868;SDS011;7004;48.206;16.402;2022-08-18T03:43:52;11.57;;;8.13;;
13868;SDS011;7004;48.206;16.402;2022-08-18T03:46:19;11.83;;;8.33;;
13868;SDS011;7004;48.206;16.402;2022-08-18T03:48:47;14.57;;;8.10;;
13868;SDS011;7004;48.206;16.402;2022-08-18T03:51:16;10.30;;;7.63;;
13868;SDS011;7004;48.206;16.402;2022-08-18T03:53:45;10.23;;;7.93;;
13868;SDS011;7004;48.206;16.402;2022-08-18T03:56:14;12.77;;;7.13;;
13868;SDS011;7004;48.206;16.402;2022-08-18T03:58:45;11.97;;;8.03;;
13868;SDS011;7004;48.206;16.402;2022-08-18T04:01:25;15.47;;;8.00;;
13868;SDS011;7004;48.206;16.402;2022-08-18T04:03:56;12.23;;;8.63;;
13868;SDS011;7004;48.206;16.402;2022-08-18T04:06:31;9.43;;;7.53;;
13868;SDS011;7004;48.206;16.402;2022-08-18T04:09:01;10.97;;;7.07;;
13868;SDS011;7004;48.206;16.402;2022-08-18T04:11:31;10.50;;;7.23;;
13868;SDS011;7004;48.206;16.402;2022-08-18T04:14:00;8.60;;;7.30;;
13868;SDS011;7004;48.206;16.402;2022-08-18T04:16:26;8.27;;;7.47;;
13868;SDS011;7004;48.206;16.402;2022-08-18T04:18:56;10.63;;;7.70;;
13868;SDS011;7004;48.206;16.402;2022-08-18T04:21:34;13.60;;;7.80;;
13868;SDS011;7004;48.206;16.402;2022-08-18T04:24:03;11.07;;;7.93;;
13868;SDS011;7004;48.206;16.402;2022-08-18T04:26:33;12.90;;;8.07;;
13868;SDS011;7004;48.206;16.402;2022-08-18T04:29:03;16.50;;;7.93;;
13868;SDS011;7004;48.206;16.402;2022-08-18T04:31:30;10.37;;;7.83;;
13868;SDS011;7004;48.206;16.402;2022-08-18T04:33:57;9.77;;;7.90;;
13868;SDS011;7004;48.206;16.402;2022-08-18T04:36:26;15.17;;;7.60;;
13868;SDS011;7004;48.206;16.402;2022-08-18T04:38:53;12.67;;;7.90;;
13868;SDS011;7004;48.206;16.402;2022-08-18T04:41:20;16.83;;;7.63;;
13868;SDS011;7004;48.206;16.402;2022-08-18T04:43:50;16.53;;;8.40;;
13868;SDS011;7004;48.206;16.402;2022-08-18T04:46:24;13.43;;;7.83;;
13868;SDS011;7004;48.206;16.402;2022-08-18T04:48:52;11.27;;;7.93;;
13868;SDS011;7004;48.206;16.402;2022-08-18T04:51:24;11.83;;;7.77;;
13868;SDS011;7004;48.206;16.402;2022-08-18T04:53:53;15.33;;;8.17;;
13868;SDS011;7004;48.206;16.402;2022-08-18T04:59:00;12.03;;;8.03;;
13868;SDS011;7004;48.206;16.402;2022-08-18T05:01:36;10.67;;;7.77;;
13868;SDS011;7004;48.206;16.402;2022-08-18T05:04:05;12.97;;;7.97;;
13868;SDS011;7004;48.206;16.402;2022-08-18T05:06:33;14.27;;;8.50;;
13868;SDS011;7004;48.206;16.402;2022-08-18T05:09:07;20.23;;;8.53;;
13868;SDS011;7004;48.206;16.402;2022-08-18T05:11:35;22.87;;;8.93;;
13868;SDS011;7004;48.206;16.402;2022-08-18T05:14:03;13.33;;;8.40;;
13868;SDS011;7004;48.206;16.402;2022-08-18T05:16:32;15.67;;;8.60;;
13868;SDS011;7004;48.206;16.402;2022-08-18T05:19:04;11.27;;;7.93;;
13868;SDS011;7004;48.206;16.402;2022-08-18T05:21:33;11.10;;;8.50;;
13868;SDS011;7004;48.206;16.402;2022-08-18T05:24:01;16.40;;;8.07;;
13868;SDS011;7004;48.206;16.402;2022-08-18T05:26:29;11.43;;;8.00;;
13868;SDS011;7004;48.206;16.402;2022-08-18T05:28:56;15.23;;;8.50;;
13868;SDS011;7004;48.206;16.402;2022-08-18T05:31:24;19.67;;;8.33;;
13868;SDS011;7004;48.206;16.402;2022-08-18T05:33:53;20.07;;;8.90;;
13868;SDS011;7004;48.206;16.402;2022-08-18T05:41:39;12.83;;;8.60;;
13868;SDS011;7004;48.206;16.402;2022-08-18T05:44:14;10.50;;;8.63;;
13868;SDS011;7004;48.206;16.402;2022-08-18T05:46:50;10.30;;;8.33;;
13868;SDS011;7004;48.206;16.402;2022-08-18T05:49:31;10.63;;;8.83;;
13868;SDS011;7004;48.206;16.402;2022-08-18T05:52:02;12.27;;;8.80;;
13868;SDS011;7004;48.206;16.402;2022-08-18T05:54:37;10.37;;;8.03;;
13868;SDS011;7004;48.206;16.402;2022-08-18T05:57:30;8.80;;;7.90;;
13868;SDS011;7004;48.206;16.402;2022-08-18T06:00:02;9.27;;;7.70;;
13868;SDS011;7004;48.206;16.402;2022-08-18T06:02:39;10.70;;;7.90;;
13868;SDS011;7004;48.206;16.402;2022-08-18T06:05:19;13.83;;;7.70;;
13868;SDS011;7004;48.206;16.402;2022-08-18T06:07:53;11.17;;;7.63;;
13868;SDS011;7004;48.206;16.402;2022-08-18T06:10:30;9.30;;;7.70;;
13868;SDS011;7004;48.206;16.402;2022-08-18T06:12:59;10.97;;;7.80;;
13868;SDS011;7004;48.206;16.402;2022-08-18T06:18:39;10.57;;;7.27;;
13868;SDS011;7004;48.206;16.402;2022-08-18T06:21:30;11.73;;;7.57;;
13868;SDS011;7004;48.206;16.402;2022-08-18T06:24:45;12.17;;;8.73;;
13868;SDS011;7004;48.206;16.402;2022-08-18T06:27:39;10.37;;;7.37;;
13868;SDS011;7004;48.206;16.402;2022-08-18T06:30:25;11.63;;;7.47;;
13868;SDS011;7004;48.206;16.402;2022-08-18T06:33:12;10.97;;;7.23;;
13868;SDS011;7004;48.206;16.402;2022-08-18T06:39:19;7.93;;;7.20;;
13868;SDS011;7004;48.206;16.402;2022-08-18T06:42:00;17.27;;;7.43;;
13868;SDS011;7004;48.206;16.402;2022-08-18T06:44:44;11.27;;;7.10;;
13868;SDS011;7004;48.206;16.402;2022-08-18T06:47:20;12.63;;;6.80;;
13868;SDS011;7004;48.206;16.402;2022-08-18T06:53:00;14.00;;;7.10;;
13868;SDS011;7004;48.206;16.402;2022-08-18T06:55:35;9.50;;;6.43;;
13868;SDS011;7004;48.206;16.402;2022-08-18T06:58:07;14.30;;;7.40;;
13868;SDS011;7004;48.206;16.402;2022-08-18T07:03:19;13.10;;;7.37;;
13868;SDS011;7004;48.206;16.402;2022-08-18T07:08:52;9.30;;;6.57;;
13868;SDS011;7004;48.206;16.402;2022-08-18T07:11:24;7.83;;;6.73;;
13868;SDS011;7004;48.206;16.402;2022-08-18T07:14:11;11.97;;;6.63;;
13868;SDS011;7004;48.206;16.402;2022-08-18T07:16:45;8.97;;;6.83;;
13868;SDS011;7004;48.206;16.402;2022-08-18T07:19:14;10.07;;;7.60;;
13868;SDS011;7004;48.206;16.402;2022-08-18T07:21:45;11.73;;;6.70;;
13868;SDS011;7004;48.206;16.402;2022-08-18T07:24:41;12.37;;;6.63;;
13868;SDS011;7004;48.206;16.402;2022-08-18T07:27:17;11.80;;;7.80;;
13868;SDS011;7004;48.206;16.402;2022-08-18T07:32:38;14.97;;;7.20;;
13868;SDS011;7004;48.206;16.402;2022-08-18T07:35:12;9.97;;;7.93;;
13868;SDS011;7004;48.206;16.402;2022-08-18T07:37:48;12.73;;;7.80;;
13868;SDS011;7004;48.206;16.402;2022-08-18T07:40:34;9.60;;;7.60;;
13868;SDS011;7004;48.206;16.402;2022-08-18T07:43:14;10.33;;;7.53;;
13868;SDS011;7004;48.206;16.402;2022-08-18T07:46:07;9.67;;;7.23;;
13868;SDS011;7004;48.206;16.402;2022-08-18T07:48:56;11.67;;;7.47;;
13868;SDS011;7004;48.206;16.402;2022-08-18T07:51:43;10.67;;;7.23;;
13868;SDS011;7004;48.206;16.402;2022-08-18T07:54:38;12.47;;;6.73;;
13868;SDS011;7004;48.206;16.402;2022-08-18T08:08:19;8.53;;;7.27;;
13868;SDS011;7004;48.206;16.402;2022-08-18T08:16:59;11.37;;;7.13;;
13868;SDS011;7004;48.206;16.402;2022-08-18T08:28:22;9.33;;;7.00;;
13868;SDS011;7004;48.206;16.402;2022-08-18T08:31:21;9.93;;;7.30;;
13868;SDS011;7004;48.206;16.402;2022-08-18T08:37:06;15.57;;;8.00;;
13868;SDS011;7004;48.206;16.402;2022-08-18T08:42:36;10.90;;;7.27;;
13868;SDS011;7004;48.206;16.402;2022-08-18T08:45:10;12.80;;;7.30;;
13868;SDS011;7004;48.206;16.402;2022-08-18T08:51:45;11.57;;;8.13;;
13868;SDS011;7004;48.206;16.402;2022-08-18T08:53:48;13.35;;;7.97;;
13868;SDS011;7004;48.206;16.402;2022-08-18T08:56:43;12.70;;;7.30;;
13868;SDS011;7004;48.206;16.402;2022-08-18T08:59:14;14.00;;;8.57;;
13868;SDS011;7004;48.206;16.402;2022-08-18T09:04:53;15.70;;;7.50;;
13868;SDS011;7004;48.206;16.402;2022-08-18T09:13:13;13.25;;;7.28;;
13868;SDS011;7004;48.206;16.402;2022-08-18T09:25:11;10.45;;;7.60;;
13868;SDS011;7004;48.206;16.402;2022-08-18T09:28:12;14.75;;;7.72;;
13868;SDS011;7004;48.206;16.402;2022-08-18T09:30:44;11.52;;;7.60;;
13868;SDS011;7004;48.206;16.402;2022-08-18T09:43:11;15.43;;;7.53;;
13868;SDS011;7004;48.206;16.402;2022-08-18T09:45:56;15.57;;;7.75;;
13868;SDS011;7004;48.206;16.402;2022-08-18T09:48:28;9.63;;;7.28;;
13868;SDS011;7004;48.206;16.402;2022-08-18T10:02:11;12.27;;;7.75;;
13868;SDS011;7004;48.206;16.402;2022-08-18T10:07:46;11.32;;;7.20;;
13868;SDS011;7004;48.206;16.402;2022-08-18T10:10:36;7.57;;;6.88;;
13868;SDS011;7004;48.206;16.402;2022-08-18T10:13:17;12.48;;;6.97;;
13868;SDS011;7004;48.206;16.402;2022-08-18T10:19:28;14.23;;;7.18;;
13868;SDS011;7004;48.206;16.402;2022-08-18T10:24:28;11.85;;;7.65;;
13868;SDS011;7004;48.206;16.402;2022-08-18T10:27:01;13.88;;;6.95;;
13868;SDS011;7004;48.206;16.402;2022-08-18T10:29:57;15.10;;;6.80;;
13868;SDS011;7004;48.206;16.402;2022-08-18T10:32:34;13.02;;;6.82;;
13868;SDS011;7004;48.206;16.402;2022-08-18T10:38:17;15.82;;;7.45;;
13868;SDS011;7004;48.206;16.402;2022-08-18T10:41:03;19.63;;;7.97;;
13868;SDS011;7004;48.206;16.402;2022-08-18T10:43:50;9.90;;;6.95;;
13868;SDS011;7004;48.206;16.402;2022-08-18T10:46:20;15.57;;;7.47;;
13868;SDS011;7004;48.206;16.402;2022-08-18T10:49:24;12.23;;;7.20;;
13868;SDS011;7004;48.206;16.402;2022-08-18T10:57:51;10.85;;;6.32;;
13868;SDS011;7004;48.206;16.402;2022-08-18T11:06:08;11.00;;;6.30;;
13868;SDS011;7004;48.206;16.402;2022-08-18T11:08:45;16.33;;;7.60;;
13868;SDS011;7004;48.206;16.402;2022-08-18T11:11:14;12.90;;;5.70;;
13868;SDS011;7004;48.206;16.402;2022-08-18T11:19:16;14.82;;;5.93;;
13868;SDS011;7004;48.206;16.402;2022-08-18T11:21:47;8.45;;;6.15;;
13868;SDS011;7004;48.206;16.402;2022-08-18T11:24:18;9.23;;;6.07;;
13868;SDS011;7004;48.206;16.402;2022-08-18T11:26:52;9.88;;;6.25;;
13868;SDS011;7004;48.206;16.402;2022-08-18T11:32:02;11.00;;;5.45;;
13868;SDS011;7004;48.206;16.402;2022-08-18T11:43:13;11.10;;;6.65;;
13868;SDS011;7004;48.206;16.402;2022-08-18T11:51:16;11.75;;;5.75;;
13868;SDS011;7004;48.206;16.402;2022-08-18T11:58:58;13.93;;;6.00;;
13868;SDS011;7004;48.206;16.402;2022-08-18T12:09:35;15.60;;;5.90;;
13868;SDS011;7004;48.206;16.402;2022-08-18T12:17:48;12.00;;;6.13;;
13868;SDS011;7004;48.206;16.402;2022-08-18T12:20:14;10.70;;;5.20;;
13868;SDS011;7004;48.206;16.402;2022-08-18T12:22:42;12.70;;;5.63;;
13868;SDS011;7004;48.206;16.402;2022-08-18T12:25:14;10.02;;;5.70;;
13868;SDS011;7004;48.206;16.402;2022-08-18T12:27:43;11.48;;;5.18;;
13868;SDS011;7004;48.206;16.402;2022-08-18T12:30:10;12.00;;;5.60;;
13868;SDS011;7004;48.206;16.402;2022-08-18T12:32:37;12.60;;;5.25;;
13868;SDS011;7004;48.206;16.402;2022-08-18T12:35:04;10.75;;;5.32;;
13868;SDS011;7004;48.206;16.402;2022-08-18T12:37:33;9.70;;;5.65;;
13868;SDS011;7004;48.206;16.402;2022-08-18T12:40:00;14.38;;;6.13;;
13868;SDS011;7004;48.206;16.402;2022-08-18T12:42:27;13.20;;;5.65;;
13868;SDS011;7004;48.206;16.402;2022-08-18T12:44:53;11.98;;;5.72;;
13868;SDS011;7004;48.206;16.402;2022-08-18T12:47:20;7.63;;;5.25;;
13868;SDS011;7004;48.206;16.402;2022-08-18T12:49:50;10.57;;;5.35;;
13868;SDS011;7004;48.206;16.402;2022-08-18T12:52:17;7.38;;;5.35;;
13868;SDS011;7004;48.206;16.402;2022-08-18T12:54:44;10.82;;;5.20;;
13868;SDS011;7004;48.206;16.402;2022-08-18T12:57:12;11.82;;;5.60;;
13868;SDS011;7004;48.206;16.402;2022-08-18T12:59:46;9.70;;;5.05;;
13868;SDS011;7004;48.206;16.402;2022-08-18T13:02:12;10.57;;;4.90;;
13868;SDS011;7004;48.206;16.402;2022-08-18T13:04:40;13.43;;;5.05;;
13868;SDS011;7004;48.206;16.402;2022-08-18T13:07:06;13.75;;;4.93;;
13868;SDS011;7004;48.206;16.402;2022-08-18T13:09:33;11.68;;;4.53;;
13868;SDS011;7004;48.206;16.402;2022-08-18T13:12:00;9.65;;;5.00;;
13868;SDS011;7004;48.206;16.402;2022-08-18T13:14:27;16.75;;;4.80;;
13868;SDS011;7004;48.206;16.402;2022-08-18T13:16:53;10.88;;;4.70;;
13868;SDS011;7004;48.206;16.402;2022-08-18T13:19:19;8.13;;;4.03;;
13868;SDS011;7004;48.206;16.402;2022-08-18T13:21:45;8.48;;;4.72;;
13868;SDS011;7004;48.206;16.402;2022-08-18T13:24:12;11.52;;;4.63;;
13868;SDS011;7004;48.206;16.402;2022-08-18T13:26:40;9.45;;;4.50;;
13868;SDS011;7004;48.206;16.402;2022-08-18T13:29:09;11.57;;;4.90;;
13868;SDS011;7004;48.206;16.402;2022-08-18T13:31:35;8.23;;;4.32;;
13868;SDS011;7004;48.206;16.402;2022-08-18T13:34:02;15.20;;;4.20;;
13868;SDS011;7004;48.206;16.402;2022-08-18T13:36:31;7.95;;;4.00;;
13868;SDS011;7004;48.206;16.402;2022-08-18T13:39:20;9.93;;;4.53;;
13868;SDS011;7004;48.206;16.402;2022-08-18T13:41:49;10.88;;;4.13;;
13868;SDS011;7004;48.206;16.402;2022-08-18T13:44:18;9.55;;;3.67;;
13868;SDS011;7004;48.206;16.402;2022-08-18T13:46:47;7.35;;;4.00;;
13868;SDS011;7004;48.206;16.402;2022-08-18T13:49:15;10.25;;;4.40;;
13868;SDS011;7004;48.206;16.402;2022-08-18T13:51:43;7.75;;;3.95;;
13868;SDS011;7004;48.206;16.402;2022-08-18T13:54:22;10.02;;;4.22;;
13868;SDS011;7004;48.206;16.402;2022-08-18T13:56:53;8.23;;;4.00;;
13868;SDS011;7004;48.206;16.402;2022-08-18T13:59:20;7.45;;;4.00;;
13868;SDS011;7004;48.206;16.402;2022-08-18T14:01:48;8.73;;;3.90;;
13868;SDS011;7004;48.206;16.402;2022-08-18T14:04:16;9.25;;;3.75;;
13868;SDS011;7004;48.206;16.402;2022-08-18T14:06:43;10.45;;;4.40;;
13868;SDS011;7004;48.206;16.402;2022-08-18T14:09:09;7.88;;;4.13;;
13868;SDS011;7004;48.206;16.402;2022-08-18T14:11:36;9.73;;;5.30;;
13868;SDS011;7004;48.206;16.402;2022-08-18T14:14:03;7.57;;;4.15;;
13868;SDS011;7004;48.206;16.402;2022-08-18T14:16:30;8.15;;;4.82;;
13868;SDS011;7004;48.206;16.402;2022-08-18T14:18:58;5.55;;;3.70;;
13868;SDS011;7004;48.206;16.402;2022-08-18T14:21:45;9.68;;;4.10;;
13868;SDS011;7004;48.206;16.402;2022-08-18T14:24:33;7.65;;;4.13;;
13868;SDS011;7004;48.206;16.402;2022-08-18T14:27:23;11.05;;;4.22;;
13868;SDS011;7004;48.206;16.402;2022-08-18T14:29:57;10.43;;;3.80;;
13868;SDS011;7004;48.206;16.402;2022-08-18T14:32:25;8.48;;;4.43;;
13868;SDS011;7004;48.206;16.402;2022-08-18T14:34:57;9.25;;;3.67;;
13868;SDS011;7004;48.206;16.402;2022-08-18T14:37:27;6.00;;;4.20;;
13868;SDS011;7004;48.206;16.402;2022-08-18T14:39:55;5.25;;;3.95;;
13868;SDS011;7004;48.206;16.402;2022-08-18T14:42:22;6.30;;;4.30;;
13868;SDS011;7004;48.206;16.402;2022-08-18T14:44:49;8.68;;;4.25;;
13868;SDS011;7004;48.206;16.402;2022-08-18T14:47:15;10.18;;;4.72;;
13868;SDS011;7004;48.206;16.402;2022-08-18T14:49:42;6.00;;;4.43;;
13868;SDS011;7004;48.206;16.402;2022-08-18T14:52:10;9.38;;;4.38;;
13868;SDS011;7004;48.206;16.402;2022-08-18T14:54:37;6.25;;;4.45;;
13868;SDS011;7004;48.206;16.402;2022-08-18T14:57:03;12.40;;;4.50;;
13868;SDS011;7004;48.206;16.402;2022-08-18T14:59:33;8.40;;;4.60;;
13868;SDS011;7004;48.206;16.402;2022-08-18T15:01:59;5.90;;;4.25;;
13868;SDS011;7004;48.206;16.402;2022-08-18T15:04:25;11.80;;;4.38;;
13868;SDS011;7004;48.206;16.402;2022-08-18T15:06:52;7.13;;;4.70;;
13868;SDS011;7004;48.206;16.402;2022-08-18T15:09:18;12.07;;;5.10;;
13868;SDS011;7004;48.206;16.402;2022-08-18T15:11:44;8.32;;;4.40;;
13868;SDS011;7004;48.206;16.402;2022-08-18T15:14:11;9.93;;;4.18;;
13868;SDS011;7004;48.206;16.402;2022-08-18T15:16:37;7.35;;;4.35;;
13868;SDS011;7004;48.206;16.402;2022-08-18T15:19:03;7.18;;;4.38;;
13868;SDS011;7004;48.206;16.402;2022-08-18T15:21:29;8.35;;;4.03;;
13868;SDS011;7004;48.206;16.402;2022-08-18T15:24:15;9.90;;;4.50;;
13868;SDS011;7004;48.206;16.402;2022-08-18T15:26:59;6.88;;;4.30;;
13868;SDS011;7004;48.206;16.402;2022-08-18T15:29:29;10.20;;;4.32;;
13868;SDS011;7004;48.206;16.402;2022-08-18T15:31:56;5.78;;;4.20;;
13868;SDS011;7004;48.206;16.402;2022-08-18T15:34:22;10.05;;;4.40;;
13868;SDS011;7004;48.206;16.402;2022-08-18T15:36:49;8.75;;;4.10;;
13868;SDS011;7004;48.206;16.402;2022-08-18T15:39:17;8.23;;;4.18;;
13868;SDS011;7004;48.206;16.402;2022-08-18T15:41:44;8.80;;;4.38;;
13868;SDS011;7004;48.206;16.402;2022-08-18T15:44:14;5.95;;;3.95;;
13868;SDS011;7004;48.206;16.402;2022-08-18T15:46:46;8.95;;;4.20;;
13868;SDS011;7004;48.206;16.402;2022-08-18T15:49:13;15.77;;;4.88;;
13868;SDS011;7004;48.206;16.402;2022-08-18T15:51:40;9.63;;;4.50;;
13868;SDS011;7004;48.206;16.402;2022-08-18T15:54:07;8.13;;;4.28;;
13868;SDS011;7004;48.206;16.402;2022-08-18T15:56:34;10.73;;;4.53;;
13868;SDS011;7004;48.206;16.402;2022-08-18T15:59:01;6.18;;;4.40;;
13868;SDS011;7004;48.206;16.402;2022-08-18T16:01:32;7.97;;;4.72;;
13868;SDS011;7004;48.206;16.402;2022-08-18T16:04:06;9.20;;;5.90;;
13868;SDS011;7004;48.206;16.402;2022-08-18T16:06:33;14.25;;;5.10;;
13868;SDS011;7004;48.206;16.402;2022-08-18T16:09:02;8.73;;;4.80;;
13868;SDS011;7004;48.206;16.402;2022-08-18T16:11:29;9.80;;;4.60;;
13868;SDS011;7004;48.206;16.402;2022-08-18T16:13:55;16.85;;;5.28;;
13868;SDS011;7004;48.206;16.402;2022-08-18T16:16:25;10.50;;;4.35;;
13868;SDS011;7004;48.206;16.402;2022-08-18T16:18:52;17.52;;;4.63;;
13868;SDS011;7004;48.206;16.402;2022-08-18T16:21:19;9.55;;;4.53;;
13868;SDS011;7004;48.206;16.402;2022-08-18T16:23:49;15.25;;;4.50;;
13868;SDS011;7004;48.206;16.402;2022-08-18T16:26:18;8.80;;;3.90;;
13868;SDS011;7004;48.206;16.402;2022-08-18T16:28:47;9.63;;;4.28;;
13868;SDS011;7004;48.206;16.402;2022-08-18T16:31:17;11.07;;;4.35;;
13868;SDS011;7004;48.206;16.402;2022-08-18T16:33:50;9.88;;;4.00;;
13868;SDS011;7004;48.206;16.402;2022-08-18T16:36:19;13.25;;;4.55;;
13868;SDS011;7004;48.206;16.402;2022-08-18T16:38:49;13.90;;;4.45;;
13868;SDS011;7004;48.206;16.402;2022-08-18T16:41:17;10.90;;;4.40;;
13868;SDS011;7004;48.206;16.402;2022-08-18T16:43:44;8.45;;;4.80;;
13868;SDS011;7004;48.206;16.402;2022-08-18T16:46:21;8.73;;;4.18;;
13868;SDS011;7004;48.206;16.402;2022-08-18T16:48:51;9.50;;;4.07;;
13868;SDS011;7004;48.206;16.402;2022-08-18T16:51:20;10.90;;;4.57;;
13868;SDS011;7004;48.206;16.402;2022-08-18T16:53:49;16.40;;;4.23;;
13868;SDS011;7004;48.206;16.402;2022-08-18T16:56:18;7.47;;;4.13;;
13868;SDS011;7004;48.206;16.402;2022-08-18T16:58:50;10.90;;;4.10;;
13868;SDS011;7004;48.206;16.402;2022-08-18T17:01:35;11.23;;;4.23;;
13868;SDS011;7004;48.206;16.402;2022-08-18T17:04:23;9.47;;;4.27;;
13868;SDS011;7004;48.206;16.402;2022-08-18T17:06:53;9.53;;;3.70;;
13868;SDS011;7004;48.206;16.402;2022-08-18T17:09:21;10.80;;;4.33;;
13868;SDS011;7004;48.206;16.402;2022-08-18T17:11:48;8.53;;;4.63;;
13868;SDS011;7004;48.206;16.402;2022-08-18T17:14:15;10.33;;;4.97;;
13868;SDS011;7004;48.206;16.402;2022-08-18T17:16:41;14.73;;;3.90;;
13868;SDS011;7004;48.206;16.402;2022-08-18T17:19:09;29.60;;;5.07;;
13868;SDS011;7004;48.206;16.402;2022-08-18T17:21:35;9.83;;;3.87;;
13868;SDS011;7004;48.206;16.402;2022-08-18T17:24:04;15.00;;;4.37;;
13868;SDS011;7004;48.206;16.402;2022-08-18T17:32:19;8.67;;;4.43;;
13868;SDS011;7004;48.206;16.402;2022-08-18T17:34:54;9.40;;;4.10;;
13868;SDS011;7004;48.206;16.402;2022-08-18T17:37:33;12.43;;;3.80;;
13868;SDS011;7004;48.206;16.402;2022-08-18T17:40:06;7.97;;;3.30;;
13868;SDS011;7004;48.206;16.402;2022-08-18T17:42:40;12.90;;;4.23;;
13868;SDS011;7004;48.206;16.402;2022-08-18T17:45:08;6.30;;;3.37;;
13868;SDS011;7004;48.206;16.402;2022-08-18T17:47:53;10.50;;;3.20;;
13868;SDS011;7004;48.206;16.402;2022-08-18T17:53:40;5.87;;;3.03;;
13868;SDS011;7004;48.206;16.402;2022-08-18T17:56:14;6.17;;;2.70;;
13868;SDS011;7004;48.206;16.402;2022-08-18T18:01:33;9.67;;;2.97;;
13868;SDS011;7004;48.206;16.402;2022-08-18T18:04:01;8.70;;;2.80;;
13868;SDS011;7004;48.206;16.402;2022-08-18T18:09:37;6.63;;;2.83;;
13868;SDS011;7004;48.206;16.402;2022-08-18T18:11:56;8.00;;;2.70;;
13868;SDS011;7004;48.206;16.402;2022-08-18T18:14:48;7.77;;;3.10;;